Time;durP1;ratioP1;P1;durP2;ratioP2;P2;SDS_P1;SDS_P2;PMS_P1;PMS_P2;Temp;Humidity;BMP_temperature;BMP_pressure;BME280_temperature;BME280_humidity;BME280_pressure;Samples;Min_cycle;Max_cycle;Signal;HPM_P1;HPM_P2
2021/01/03 00:00:24;;;;;;;61.97;26.40;;;5.20;92.20;;;;;;5072102;28;20020;-82
2021/01/03 00:02:50;;;;;;;65.90;26.13;;;5.20;92.10;;;;;;5073541;28;20055;-83
2021/01/03 00:05:19;;;;;;;67.70;28.23;;;5.30;92.20;;;;;;5072562;28;20037;-82
2021/01/03 00:07:45;;;;;;;72.03;28.07;;;5.30;92.20;;;;;;5073253;28;20112;-82
2021/01/03 00:10:11;;;;;;;69.67;27.63;;;5.30;92.20;;;;;;5073075;28;20111;-82
2021/01/03 00:12:38;;;;;;;65.03;26.97;;;5.30;92.10;;;;;;5071875;28;20060;-82
2021/01/03 00:15:07;;;;;;;70.93;26.97;;;5.30;92.10;;;;;;5071735;28;20115;-83
2021/01/03 00:17:33;;;;;;;65.00;27.47;;;5.30;92.10;;;;;;5072918;28;20028;-83
2021/01/03 00:19:58;;;;;;;67.63;26.53;;;5.20;92.00;;;;;;5072984;28;20039;-83
2021/01/03 00:22:24;;;;;;;71.03;28.30;;;5.30;92.10;;;;;;5073464;28;20036;-82
2021/01/03 00:24:50;;;;;;;64.80;27.50;;;5.20;92.10;;;;;;5072447;28;20384;-83
2021/01/03 00:27:15;;;;;;;64.90;26.07;;;5.20;92.10;;;;;;5072278;28;20043;-82
2021/01/03 00:29:41;;;;;;;63.37;26.13;;;5.20;92.10;;;;;;5055217;28;20033;-82
2021/01/03 00:32:07;;;;;;;63.47;25.93;;;5.30;92.10;;;;;;5071857;28;20028;-83
2021/01/03 00:34:33;;;;;;;65.63;26.63;;;5.20;92.30;;;;;;5055005;28;20602;-83
2021/01/03 00:36:58;;;;;;;66.60;27.50;;;5.30;92.00;;;;;;5071708;28;20128;-83
2021/01/03 00:39:24;;;;;;;65.10;26.27;;;5.20;92.00;;;;;;5071836;28;20063;-83
2021/01/03 00:41:51;;;;;;;61.67;26.03;;;5.20;92.10;;;;;;5072425;28;20036;-83
2021/01/03 00:44:17;;;;;;;72.30;28.13;;;5.20;92.00;;;;;;5076404;28;20040;-83
2021/01/03 00:46:43;;;;;;;58.07;25.10;;;5.20;91.90;;;;;;5076190;28;20365;-83
2021/01/03 00:49:09;;;;;;;53.73;24.93;;;5.20;91.90;;;;;;5076508;28;20036;-83
2021/01/03 00:51:35;;;;;;;63.27;26.90;;;5.20;91.90;;;;;;5075170;28;20090;-83
2021/01/03 00:54:02;;;;;;;63.57;24.67;;;5.20;92.00;;;;;;5075043;28;20472;-83
2021/01/03 00:56:28;;;;;;;60.73;25.60;;;5.20;91.90;;;;;;5076394;28;20103;-83
2021/01/03 00:58:53;;;;;;;56.17;24.87;;;5.20;91.90;;;;;;5075322;28;20144;-83
2021/01/03 01:01:21;;;;;;;62.53;25.37;;;5.20;91.90;;;;;;5076138;28;20115;-81
2021/01/03 01:03:47;;;;;;;58.20;25.13;;;5.20;91.90;;;;;;5076138;28;20025;-83
2021/01/03 01:06:12;;;;;;;60.40;25.60;;;5.10;91.90;;;;;;5075187;28;20063;-83
2021/01/03 01:08:38;;;;;;;64.17;26.27;;;5.20;91.90;;;;;;5074883;28;20044;-83
2021/01/03 01:11:05;;;;;;;70.13;27.10;;;5.10;91.90;;;;;;5075045;28;20465;-83
2021/01/03 01:13:31;;;;;;;63.97;27.73;;;5.10;92.00;;;;;;5074613;28;20025;-84
2021/01/03 01:15:56;;;;;;;72.17;29.47;;;5.20;92.00;;;;;;5074638;28;20051;-82
2021/01/03 01:18:22;;;;;;;72.47;28.20;;;5.10;91.90;;;;;;5075831;28;20032;-82
2021/01/03 01:20:48;;;;;;;68.67;27.33;;;5.10;91.90;;;;;;5075636;28;20035;-82
2021/01/03 01:23:13;;;;;;;71.50;29.03;;;5.10;91.90;;;;;;5074655;28;20032;-82
2021/01/03 01:25:39;;;;;;;75.80;29.23;;;5.10;91.90;;;;;;5075758;28;20444;-83
2021/01/03 01:28:05;;;;;;;68.90;26.30;;;5.10;91.90;;;;;;5074446;28;20447;-82
2021/01/03 01:30:32;;;;;;;75.80;29.17;;;5.10;92.00;;;;;;5075629;28;20514;-83
2021/01/03 01:32:59;;;;;;;74.63;29.20;;;5.10;92.00;;;;;;5074235;28;20025;-83
2021/01/03 01:35:28;;;;;;;69.33;28.13;;;5.10;92.00;;;;;;5075703;28;20036;-83
2021/01/03 01:37:55;;;;;;;72.47;27.93;;;5.10;91.90;;;;;;5074312;28;20024;-83
2021/01/03 01:40:25;;;;;;;74.57;26.97;;;5.10;91.90;;;;;;5074289;28;20074;-83
2021/01/03 01:42:52;;;;;;;68.10;26.93;;;5.10;91.90;;;;;;5075425;28;20033;-83
2021/01/03 01:45:20;;;;;;;65.10;27.57;;;5.10;91.90;;;;;;5057582;28;20033;-83
2021/01/03 01:47:49;;;;;;;62.30;25.37;;;5.10;91.80;;;;;;5075147;28;20127;-83
2021/01/03 01:50:22;;;;;;;65.00;25.20;;;5.10;91.80;;;;;;5075424;28;20036;-83
2021/01/03 01:52:54;;;;;;;54.08;23.80;;;5.10;91.80;;;;;;5074077;28;20021;-83
2021/01/03 01:55:26;;;;;;;58.20;24.00;;;5.10;91.80;;;;;;5075172;28;20047;-83
2021/01/03 01:58:06;;;;;;;52.67;22.13;;;5.10;91.80;;;;;;5075435;28;20027;-83
2021/01/03 02:00:34;;;;;;;50.30;22.10;;;5.10;91.80;;;;;;5075075;28;20110;-83
2021/01/03 02:03:02;;;;;;;56.60;24.10;;;5.10;91.90;;;;;;5075089;28;20020;-83
2021/01/03 02:05:49;;;;;;;50.23;22.43;;;5.10;92.10;;;;;;5073807;28;20024;-83
2021/01/03 02:08:35;;;;;;;47.30;21.83;;;5.00;91.80;;;;;;5075224;28;20107;-83
2021/01/03 02:11:04;;;;;;;52.47;23.93;;;5.10;91.80;;;;;;5075008;28;20028;-82
2021/01/03 02:13:37;;;;;;;58.63;23.17;;;5.10;91.70;;;;;;5073545;28;20073;-83
2021/01/03 02:16:12;;;;;;;52.80;21.43;;;5.10;91.70;;;;;;5075786;28;20020;-83
2021/01/03 02:18:38;;;;;;;54.03;23.23;;;5.00;91.70;;;;;;5075274;28;20427;-83
2021/01/03 02:21:13;;;;;;;55.33;22.63;;;5.10;91.70;;;;;;5059174;28;20025;-82
2021/01/03 02:23:43;;;;;;;58.53;24.87;;;5.10;91.70;;;;;;5078495;28;20031;-83
2021/01/03 02:26:11;;;;;;;53.73;22.97;;;5.10;91.60;;;;;;5076034;28;20032;-82
2021/01/03 02:28:42;;;;;;;56.53;24.37;;;5.10;91.60;;;;;;5076742;28;20382;-83
2021/01/03 02:31:10;;;;;;;51.53;22.40;;;5.10;91.50;;;;;;5076463;28;20017;-82
2021/01/03 02:33:48;;;;;;;55.70;23.73;;;5.10;91.50;;;;;;5076279;28;20024;-82
2021/01/03 02:36:26;;;;;;;55.47;23.70;;;5.00;91.40;;;;;;5083257;28;20017;-83
2021/01/03 02:39:11;;;;;;;47.97;20.93;;;5.00;91.40;;;;;;5086332;28;20388;-82
2021/01/03 02:41:37;;;;;;;47.63;21.17;;;5.00;91.50;;;;;;5086097;28;20103;-82
2021/01/03 02:44:03;;;;;;;44.73;19.43;;;5.00;91.60;;;;;;5090333;28;20037;-82
2021/01/03 02:46:29;;;;;;;50.37;21.53;;;5.00;91.60;;;;;;5091319;28;20029;-82
2021/01/03 02:48:55;;;;;;;46.23;20.77;;;5.00;91.90;;;;;;5089247;28;20051;-83
2021/01/03 02:51:28;;;;;;;50.93;20.97;;;5.00;91.70;;;;;;5093055;28;20044;-83
2021/01/03 02:53:53;;;;;;;48.63;20.57;;;5.00;91.70;;;;;;5093682;28;20025;-83
2021/01/03 02:56:19;;;;;;;49.40;21.83;;;5.00;91.70;;;;;;5088349;28;20055;-83
2021/01/03 02:58:45;;;;;;;52.53;23.10;;;5.00;91.70;;;;;;5083920;28;20111;-83
2021/01/03 03:01:11;;;;;;;58.40;23.77;;;5.00;91.70;;;;;;5085153;28;20229;-82
2021/01/03 03:03:36;;;;;;;50.57;21.97;;;5.00;91.70;;;;;;5081694;28;20035;-83
2021/01/03 03:06:02;;;;;;;45.83;21.97;;;5.10;91.70;;;;;;5076204;28;20058;-83
2021/01/03 03:08:28;;;;;;;58.73;22.83;;;5.10;91.70;;;;;;5074154;28;20056;-83
2021/01/03 03:10:53;;;;;;;54.43;23.53;;;5.10;91.60;;;;;;5073432;28;20451;-83
2021/01/03 03:13:19;;;;;;;51.43;22.43;;;5.10;91.60;;;;;;5073369;28;20055;-83
2021/01/03 03:15:44;;;;;;;50.07;21.40;;;5.10;91.60;;;;;;5056658;28;20032;-83
2021/01/03 03:18:10;;;;;;;60.13;23.87;;;5.10;91.60;;;;;;5074108;28;20384;-83
2021/01/03 03:20:36;;;;;;;55.53;22.27;;;5.10;91.60;;;;;;5055998;28;20028;-83
2021/01/03 03:23:02;;;;;;;59.03;24.50;;;5.10;91.60;;;;;;5073975;28;20453;-82
2021/01/03 03:25:27;;;;;;;61.97;26.33;;;5.10;91.50;;;;;;5074162;28;20104;-83
2021/01/03 03:27:53;;;;;;;58.77;24.87;;;5.10;91.50;;;;;;5055948;28;20025;-83
2021/01/03 03:30:23;;;;;;;65.23;25.77;;;5.10;91.50;;;;;;5072423;28;20035;-83
2021/01/03 03:32:53;;;;;;;59.30;24.80;;;5.10;91.50;;;;;;5073847;28;20391;-83
2021/01/03 03:35:27;;;;;;;62.97;25.00;;;5.10;91.50;;;;;;5072336;28;20036;-83
2021/01/03 03:37:53;;;;;;;;;;;5.00;91.50;;;;;;5074049;28;20025;-83
2021/01/03 03:40:19;;;;;;;62.43;23.57;;;5.10;91.60;;;;;;5072387;28;19904;-82
2021/01/03 03:42:44;;;;;;;66.27;26.07;;;5.00;91.50;;;;;;5073839;28;20468;-82
2021/01/03 03:45:12;;;;;;;59.93;23.40;;;5.00;91.80;;;;;;5074008;28;20054;-83
2021/01/03 03:47:37;;;;;;;59.53;24.47;;;5.00;91.60;;;;;;5072064;28;20102;-83
2021/01/03 03:50:06;;;;;;;59.80;24.33;;;5.00;91.60;;;;;;5073619;28;20472;-83
2021/01/03 03:52:31;;;;;;;65.27;25.67;;;5.00;91.60;;;;;;5073392;28;20099;-83
2021/01/03 03:54:57;;;;;;;63.77;26.40;;;5.00;91.60;;;;;;5055570;28;20052;-83
2021/01/03 03:57:23;;;;;;;67.40;27.43;;;4.90;91.50;;;;;;5072292;28;20020;-82
2021/01/03 03:59:48;;;;;;;67.80;26.17;;;5.00;91.60;;;;;;5072309;28;20035;-83
2021/01/03 04:02:14;;;;;;;60.83;25.47;;;4.90;91.60;;;;;;5055592;28;20472;-83
2021/01/03 04:04:40;;;;;;;64.87;27.03;;;4.90;91.60;;;;;;5072204;28;20033;-82
2021/01/03 04:07:05;;;;;;;76.53;28.43;;;4.90;91.60;;;;;;5072229;28;20028;-82
2021/01/03 04:09:31;;;;;;;73.53;28.30;;;4.90;91.50;;;;;;5073524;28;20028;-82
2021/01/03 04:11:57;;;;;;;69.27;27.87;;;4.90;91.60;;;;;;5072078;28;20025;-82
2021/01/03 04:14:25;;;;;;;67.13;27.83;;;4.90;91.60;;;;;;5071970;28;20078;-82
2021/01/03 04:16:57;;;;;;;65.37;26.80;;;4.90;91.60;;;;;;5072957;28;20030;-73
2021/01/03 04:19:24;;;;;;;64.30;26.77;;;4.90;91.60;;;;;;5075723;28;20024;-74
2021/01/03 04:21:55;;;;;;;64.97;26.40;;;4.80;91.90;;;;;;5077061;28;20024;-73
2021/01/03 04:24:21;;;;;;;67.37;27.07;;;4.80;91.60;;;;;;5075771;28;20449;-73
2021/01/03 04:26:55;;;;;;;67.23;28.43;;;4.90;91.60;;;;;;5075619;28;20055;-74
2021/01/03 04:29:21;;;;;;;80.68;29.35;;;4.80;91.60;;;;;;5075328;28;20033;-73
2021/01/03 04:31:52;;;;;;;76.07;30.00;;;4.80;91.70;;;;;;5075568;28;20039;-73
2021/01/03 04:34:17;;;;;;;77.30;30.23;;;4.80;91.70;;;;;;5075545;28;20479;-73
2021/01/03 04:36:43;;;;;;;72.97;29.03;;;4.80;92.00;;;;;;5075561;28;20115;-73
2021/01/03 04:39:09;;;;;;;68.00;27.97;;;4.80;91.70;;;;;;5076613;28;20071;-73
2021/01/03 04:41:39;;;;;;;78.60;29.00;;;4.80;91.70;;;;;;5058825;28;20392;-73
2021/01/03 04:44:13;;;;;;;73.23;28.90;;;4.80;91.70;;;;;;5076492;28;20031;-73
2021/01/03 04:46:39;;;;;;;;;;;4.80;91.80;;;;;;5076777;28;20484;-74
2021/01/03 04:49:09;;;;;;;74.70;28.13;;;4.80;91.80;;;;;;5077233;28;19913;-73
2021/01/03 04:51:52;;;;;;;74.80;29.37;;;4.80;91.80;;;;;;5075137;28;20027;-73
2021/01/03 04:54:19;;;;;;;81.83;30.17;;;4.80;91.80;;;;;;5076271;28;20103;-73
2021/01/03 04:56:47;;;;;;;74.87;29.33;;;4.70;91.80;;;;;;5075002;28;20012;-74
2021/01/03 04:59:23;;;;;;;78.37;31.20;;;4.70;91.80;;;;;;5076176;28;20048;-73
2021/01/03 05:01:48;;;;;;;86.00;30.47;;;4.70;91.90;;;;;;5074357;28;20035;-74
2021/01/03 05:04:32;;;;;;;80.37;30.43;;;4.70;91.90;;;;;;5075969;28;20037;-74
2021/01/03 05:07:05;;;;;;;91.82;32.13;;;4.70;91.90;;;;;;5074014;28;20099;-74
2021/01/03 05:09:31;;;;;;;78.83;30.83;;;4.70;91.90;;;;;;5074682;28;20060;-73
2021/01/03 05:12:04;;;;;;;80.90;30.77;;;4.70;92.00;;;;;;5074918;28;20074;-74
2021/01/03 05:14:39;;;;;;;62.50;23.47;;;4.80;92.00;;;;;;5074604;28;20024;-74
2021/01/03 05:17:04;;;;;;;71.67;30.77;;;4.70;92.00;;;;;;5075149;28;20286;-73
2021/01/03 05:19:30;;;;;;;82.90;29.07;;;4.70;92.00;;;;;;5057976;28;20025;-74
2021/01/03 05:21:57;;;;;;;76.57;29.20;;;4.80;92.00;;;;;;5057890;28;20024;-74
2021/01/03 05:24:28;;;;;;;79.03;30.20;;;4.80;92.00;;;;;;5074469;28;20035;-74
2021/01/03 05:26:55;;;;;;;75.00;29.77;;;4.80;92.00;;;;;;5075630;28;20058;-73
2021/01/03 05:29:30;;;;;;;80.00;30.27;;;4.70;92.00;;;;;;5057196;28;20032;-74
2021/01/03 05:32:06;;;;;;;72.47;29.87;;;4.80;92.00;;;;;;5075687;28;20027;-74
2021/01/03 05:34:41;;;;;;;86.67;31.97;;;4.80;92.00;;;;;;5075526;28;20021;-74
2021/01/03 05:37:09;;;;;;;72.27;29.73;;;4.80;92.00;;;;;;5075499;28;20024;-73
2021/01/03 05:39:35;;;;;;;81.17;31.53;;;4.80;92.00;;;;;;5075374;28;20024;-75
2021/01/03 05:42:24;;;;;;;69.13;29.80;;;4.70;92.00;;;;;;5074119;28;20077;-73
2021/01/03 05:45:02;;;;;;;78.77;32.27;;;4.80;92.00;;;;;;5074131;28;20486;-73
2021/01/03 05:47:27;;;;;;;83.27;33.03;;;4.70;91.90;;;;;;5074034;28;20052;-73
2021/01/03 05:50:33;;;;;;;71.33;30.07;;;4.70;92.00;;;;;;5075379;28;20029;-73
2021/01/03 05:52:58;;;;;;;;;;;4.70;92.00;;;;;;5075695;28;20023;-73
2021/01/03 05:55:29;;;;;;;77.00;29.57;;;4.70;92.00;;;;;;5075250;28;19912;-73
2021/01/03 05:58:22;;;;;;;69.53;30.33;;;4.70;92.00;;;;;;5057195;28;20392;-73
2021/01/03 06:00:48;;;;;;;77.10;30.10;;;4.70;92.00;;;;;;5073697;28;20035;-73
2021/01/03 06:03:29;;;;;;;77.57;30.60;;;4.70;92.00;;;;;;5057158;28;20051;-74
2021/01/03 06:06:11;;;;;;;76.93;32.00;;;4.60;92.00;;;;;;5073733;28;20533;-73
2021/01/03 06:08:39;;;;;;;80.93;32.93;;;4.60;92.00;;;;;;5073583;28;20472;-74
2021/01/03 06:11:20;;;;;;;70.17;29.93;;;4.60;92.00;;;;;;5073622;28;20020;-74
2021/01/03 06:13:58;;;;;;;83.73;32.53;;;4.70;92.10;;;;;;5074757;28;20027;-74
2021/01/03 06:16:28;;;;;;;78.93;33.50;;;4.70;92.10;;;;;;5073548;28;20039;-73
2021/01/03 06:19:03;;;;;;;80.70;33.40;;;4.70;92.10;;;;;;5073516;28;20032;-74
2021/01/03 06:21:33;;;;;;;78.90;32.17;;;4.70;92.10;;;;;;5072986;28;20047;-73
2021/01/03 06:24:16;;;;;;;80.07;31.40;;;4.70;92.10;;;;;;5072359;28;20403;-74
2021/01/03 06:26:55;;;;;;;84.93;32.17;;;4.70;92.10;;;;;;5071639;28;20021;-73
2021/01/03 06:29:33;;;;;;;69.80;31.63;;;4.70;92.10;;;;;;5073476;28;20064;-73
2021/01/03 06:32:17;;;;;;;80.50;33.30;;;4.70;92.10;;;;;;5073251;28;20027;-73
2021/01/03 06:34:51;;;;;;;;;;;4.70;92.40;;;;;;5074792;28;20021;-73
2021/01/03 06:37:49;;;;;;;72.83;31.23;;;4.70;92.10;;;;;;5072339;28;20403;-74
2021/01/03 06:40:16;;;;;;;78.00;32.60;;;4.70;92.00;;;;;;5062373;28;20027;-74
2021/01/03 06:43:16;;;;;;;77.27;31.53;;;4.70;92.00;;;;;;5074337;28;20021;-73
2021/01/03 06:46:04;;;;;;;70.77;31.57;;;4.70;92.00;;;;;;5072791;28;20036;-73
2021/01/03 06:49:01;;;;;;;69.00;30.07;;;4.70;92.00;;;;;;5072611;28;20041;-74
2021/01/03 06:51:55;;;;;;;72.70;30.63;;;4.70;92.00;;;;;;5074112;28;20581;-74
2021/01/03 06:54:23;;;;;;;73.30;29.58;;;4.70;92.00;;;;;;5069635;28;20033;-73
2021/01/03 06:56:59;;;;;;;71.53;31.97;;;4.70;92.00;;;;;;5072808;28;20025;-73
2021/01/03 06:59:46;;;;;;;71.40;30.57;;;4.70;92.00;;;;;;5072860;28;20032;-73
2021/01/03 07:02:13;;;;;;;74.80;33.23;;;4.80;92.00;;;;;;5072537;28;20032;-73
2021/01/03 07:04:39;;;;;;;68.00;31.43;;;4.80;92.00;;;;;;5072430;28;20075;-73
2021/01/03 07:07:17;;;;;;;72.50;31.53;;;4.70;92.00;;;;;;5072630;28;20029;-73
2021/01/03 07:10:07;;;;;;;77.63;32.73;;;4.70;91.90;;;;;;5073632;28;20495;-73
2021/01/03 07:12:42;;;;;;;64.77;29.33;;;4.70;91.90;;;;;;5073601;28;20020;-73
2021/01/03 07:15:34;;;;;;;66.93;29.43;;;4.70;91.90;;;;;;5072381;28;20016;-73
2021/01/03 07:18:16;;;;;;;66.00;30.83;;;4.70;91.90;;;;;;5072334;28;20021;-73
2021/01/03 07:20:57;;;;;;;67.83;29.60;;;4.70;91.80;;;;;;5073733;28;20028;-73
2021/01/03 07:23:26;;;;;;;60.03;27.33;;;4.70;91.90;;;;;;5073575;28;20025;-74
2021/01/03 07:26:18;;;;;;;68.90;29.67;;;4.80;91.80;;;;;;5072312;28;20138;-73
2021/01/03 07:28:49;;;;;;;62.50;28.83;;;4.70;91.70;;;;;;5072148;28;20476;-73
2021/01/03 07:31:33;;;;;;;58.13;27.83;;;4.70;91.70;;;;;;5072239;28;20013;-73
2021/01/03 07:34:12;;;;;;;56.72;26.48;;;4.70;91.80;;;;;;5072294;28;20013;-73
2021/01/03 07:36:46;;;;;;;58.83;26.57;;;4.70;91.80;;;;;;5073771;28;20088;-73
2021/01/03 07:39:24;;;;;;;58.25;27.25;;;4.70;91.80;;;;;;5072103;28;20047;-73
2021/01/03 07:42:23;;;;;;;57.73;26.83;;;4.80;91.70;;;;;;5073422;28;20373;-74
2021/01/03 07:44:50;;;;;;;65.17;28.40;;;4.80;91.50;;;;;;5072272;28;20020;-74
2021/01/03 07:47:37;;;;;;;58.93;28.03;;;4.80;91.60;;;;;;5055194;28;20071;-73
2021/01/03 07:50:21;;;;;;;56.97;26.77;;;4.80;91.40;;;;;;5072009;28;20033;-74
2021/01/03 07:52:51;;;;;;;64.30;27.63;;;4.70;91.20;;;;;;5078677;28;20039;-73
2021/01/03 07:55:25;;;;;;;57.83;25.90;;;4.80;91.10;;;;;;5079969;28;20028;-74
2021/01/03 07:58:04;;;;;;;59.20;27.25;;;4.80;91.20;;;;;;5078490;28;20565;-74
2021/01/03 08:00:35;;;;;;;52.10;25.33;;;4.80;91.00;;;;;;5078611;28;20107;-74
2021/01/03 08:03:14;;;;;;;49.37;23.23;;;4.80;91.40;;;;;;5078576;28;20549;-73
2021/01/03 08:05:41;;;;;;;55.47;24.93;;;4.80;91.20;;;;;;5078550;28;20024;-74
2021/01/03 08:08:21;;;;;;;52.93;25.27;;;4.70;90.90;;;;;;5079723;28;20444;-74
2021/01/03 08:10:49;;;;;;;52.50;25.00;;;4.80;90.90;;;;;;5078452;28;20013;-74
2021/01/03 08:13:30;;;;;;;47.67;22.70;;;4.80;90.80;;;;;;5078527;28;20012;-73
2021/01/03 08:16:00;;;;;;;47.43;24.33;;;4.80;90.80;;;;;;5079684;28;20530;-73
2021/01/03 08:18:30;;;;;;;45.87;22.67;;;4.80;90.50;;;;;;5078503;28;20039;-73
2021/01/03 08:21:25;;;;;;;50.17;22.97;;;4.70;90.50;;;;;;5079659;28;20388;-73
2021/01/03 08:23:50;;;;;;;46.17;22.03;;;4.80;90.50;;;;;;5065543;28;20098;-73
2021/01/03 08:26:24;;;;;;;44.83;21.73;;;4.80;90.20;;;;;;5061521;28;20454;-75
2021/01/03 08:28:58;;;;;;;46.40;21.40;;;4.80;90.30;;;;;;5079441;28;20534;-73
2021/01/03 08:31:25;;;;;;;41.70;21.63;;;4.80;90.10;;;;;;5078244;28;20031;-74
2021/01/03 08:33:54;;;;;;;46.40;21.50;;;4.80;90.20;;;;;;5079418;28;20070;-74
2021/01/03 08:36:24;;;;;;;50.03;23.50;;;4.80;90.20;;;;;;5078190;28;20016;-73
2021/01/03 08:38:51;;;;;;;53.80;25.00;;;4.80;90.00;;;;;;5078248;28;20040;-74
2021/01/03 08:41:26;;;;;;;51.93;25.33;;;4.80;89.80;;;;;;5078046;28;20379;-73
2021/01/03 08:43:52;;;;;;;51.33;23.93;;;4.80;89.70;;;;;;5079294;28;20391;-74
2021/01/03 08:46:30;;;;;;;44.23;23.57;;;4.80;89.60;;;;;;5078095;28;20028;-74
2021/01/03 08:48:59;;;;;;;43.33;22.63;;;4.80;89.70;;;;;;5061463;28;20035;-73
2021/01/03 08:51:25;;;;;;;45.60;24.63;;;4.80;90.10;;;;;;5079394;28;20021;-73
2021/01/03 08:53:57;;;;;;;45.57;23.23;;;4.80;89.30;;;;;;5078033;28;20472;-73
2021/01/03 08:56:29;;;;;;;48.10;23.50;;;4.80;89.30;;;;;;5079485;28;20078;-73
2021/01/03 08:58:55;;;;;;;41.27;20.83;;;4.80;89.40;;;;;;5079387;28;20549;-74
2021/01/03 09:01:26;;;;;;;41.03;21.17;;;4.80;89.70;;;;;;5061352;28;20032;-73
2021/01/03 09:03:54;;;;;;;44.43;22.53;;;4.80;89.50;;;;;;5075697;28;20384;-73
2021/01/03 09:06:21;;;;;;;40.87;20.23;;;4.80;89.40;;;;;;5075973;28;20032;-73
2021/01/03 09:08:48;;;;;;;37.97;19.87;;;4.90;89.20;;;;;;5058181;28;20480;-73
2021/01/03 09:11:31;;;;;;;40.90;20.83;;;4.90;89.40;;;;;;5074847;28;20021;-73
2021/01/03 09:14:16;;;;;;;45.25;20.38;;;4.90;88.80;;;;;;5074619;28;20024;-73
2021/01/03 09:16:58;;;;;;;41.67;20.70;;;4.90;88.50;;;;;;5074643;28;20059;-73
2021/01/03 09:19:48;;;;;;;35.00;17.73;;;4.90;88.30;;;;;;5074572;28;20028;-72
2021/01/03 09:22:28;;;;;;;35.63;18.57;;;4.80;88.30;;;;;;5074456;28;20119;-73
2021/01/03 09:25:01;;;;;;;40.07;18.17;;;4.90;87.90;;;;;;5075699;28;20466;-72
2021/01/03 09:27:31;;;;;;;39.97;18.33;;;4.90;87.90;;;;;;5074556;28;20468;-72
2021/01/03 09:30:16;;;;;;;39.37;18.60;;;4.90;88.00;;;;;;5074011;28;20031;-73
2021/01/03 09:32:43;;;;;;;34.50;16.00;;;4.90;87.80;;;;;;5074378;28;20028;-73
2021/01/03 09:35:24;;;;;;;34.53;16.83;;;4.90;87.30;;;;;;5074158;28;20025;-74
2021/01/03 09:38:15;;;;;;;31.77;15.83;;;4.90;87.30;;;;;;5074069;28;20029;-74
2021/01/03 09:41:05;;;;;;;31.20;16.23;;;4.90;86.90;;;;;;5075225;28;20032;-74
2021/01/03 09:43:55;;;;;;;31.13;16.03;;;4.90;86.90;;;;;;5073866;28;20078;-74
2021/01/03 09:46:31;;;;;;;30.07;15.50;;;4.90;85.90;;;;;;5074935;28;20024;-74
2021/01/03 09:49:22;;;;;;;31.13;15.57;;;4.90;85.20;;;;;;5073829;28;20032;-75
2021/01/03 09:52:18;;;;;;;30.90;14.53;;;4.90;85.20;;;;;;5075328;28;20021;-74
2021/01/03 09:55:02;;;;;;;27.23;14.97;;;4.90;84.70;;;;;;5075301;28;20031;-74
2021/01/03 09:57:42;;;;;;;26.35;13.32;;;5.00;84.20;;;;;;5073880;28;20024;-75
2021/01/03 10:00:12;;;;;;;28.97;14.33;;;4.90;83.90;;;;;;5073667;28;20039;-74
2021/01/03 10:02:38;;;;;;;25.27;13.60;;;4.90;83.80;;;;;;5073569;28;20032;-74
2021/01/03 10:05:18;;;;;;;26.60;13.33;;;4.90;83.90;;;;;;5057091;28;20066;-74
2021/01/03 10:07:44;;;;;;;24.40;12.47;;;4.90;83.50;;;;;;5073731;28;20101;-74
2021/01/03 10:10:10;;;;;;;23.30;12.87;;;4.90;83.00;;;;;;5074807;28;20520;-75
2021/01/03 10:12:38;;;;;;;24.77;12.20;;;4.90;83.60;;;;;;5073389;28;20067;-75
2021/01/03 10:15:08;;;;;;;25.17;12.27;;;5.00;83.00;;;;;;5073682;28;20146;-74
2021/01/03 10:17:35;;;;;;;23.83;12.03;;;5.00;82.70;;;;;;5074777;28;20013;-74
2021/01/03 10:20:16;;;;;;;26.00;11.80;;;4.90;82.30;;;;;;5073362;28;20025;-73
2021/01/03 10:22:44;;;;;;;23.63;11.97;;;5.00;82.70;;;;;;5073315;28;20503;-74
2021/01/03 10:25:13;;;;;;;22.33;11.57;;;5.00;82.00;;;;;;5056686;28;20029;-74
2021/01/03 10:27:38;;;;;;;29.33;12.07;;;5.00;81.80;;;;;;5074372;28;20083;-74
2021/01/03 10:30:09;;;;;;;23.43;11.53;;;5.00;82.00;;;;;;5073122;28;20060;-74
2021/01/03 10:32:38;;;;;;;22.20;10.87;;;5.00;82.60;;;;;;5057014;28;20111;-74
2021/01/03 10:35:05;;;;;;;20.30;10.40;;;5.00;82.30;;;;;;5074491;28;20047;-74
2021/01/03 10:37:31;;;;;;;18.70;9.80;;;5.10;82.40;;;;;;5073019;28;20029;-75
2021/01/03 10:39:57;;;;;;;21.13;11.40;;;5.10;82.30;;;;;;5056313;28;20152;-75
2021/01/03 10:42:22;;;;;;;21.47;10.73;;;5.10;82.00;;;;;;5073222;28;20082;-74
2021/01/03 10:44:48;;;;;;;22.50;11.50;;;5.10;81.70;;;;;;5073104;28;20029;-74
2021/01/03 10:47:14;;;;;;;21.37;10.90;;;5.10;81.30;;;;;;5056041;28;20048;-74
2021/01/03 10:49:39;;;;;;;21.77;10.37;;;5.10;81.30;;;;;;5056116;28;20029;-75
2021/01/03 10:52:05;;;;;;;23.37;11.43;;;5.20;81.60;;;;;;5073844;28;20521;-74
2021/01/03 10:54:31;;;;;;;18.40;10.10;;;5.20;81.50;;;;;;5072641;28;20024;-74
2021/01/03 10:56:57;;;;;;;20.43;10.30;;;5.30;81.20;;;;;;5073838;28;20025;-75
2021/01/03 10:59:25;;;;;;;17.97;9.00;;;5.20;81.50;;;;;;5055997;28;20364;-75
2021/01/03 11:01:52;;;;;;;22.20;9.97;;;5.20;80.90;;;;;;5072508;28;20380;-73
2021/01/03 11:04:20;;;;;;;17.90;9.67;;;5.20;80.40;;;;;;5072468;28;20043;-73
2021/01/03 11:06:52;;;;;;;19.63;9.40;;;5.20;80.50;;;;;;5073746;28;20050;-73
2021/01/03 11:09:23;;;;;;;17.93;9.07;;;5.20;80.30;;;;;;5072342;28;20113;-74
2021/01/03 11:11:49;;;;;;;20.33;10.50;;;5.20;80.30;;;;;;5072535;28;20040;-73
2021/01/03 11:14:15;;;;;;;18.97;10.00;;;5.20;80.40;;;;;;5072482;28;20029;-73
2021/01/03 11:16:43;;;;;;;20.37;9.40;;;5.20;80.30;;;;;;5072495;28;20048;-74
2021/01/03 11:19:13;;;;;;;20.20;10.10;;;5.20;80.40;;;;;;5072559;28;20081;-74
2021/01/03 11:21:39;;;;;;;20.57;9.40;;;5.20;80.00;;;;;;5072425;28;20043;-74
2021/01/03 11:24:06;;;;;;;17.73;9.37;;;5.20;79.90;;;;;;5072324;28;20020;-73
2021/01/03 11:26:39;;;;;;;20.13;9.67;;;5.20;79.80;;;;;;5072110;28;20086;-73
2021/01/03 11:29:06;;;;;;;15.70;8.10;;;5.20;79.60;;;;;;5073431;28;20529;-74
2021/01/03 11:31:35;;;;;;;18.63;9.30;;;5.20;79.90;;;;;;5072211;28;20013;-74
2021/01/03 11:34:03;;;;;;;21.20;9.73;;;5.20;80.30;;;;;;5073284;28;20387;-74
2021/01/03 11:36:29;;;;;;;15.20;7.93;;;5.20;80.10;;;;;;5073438;28;20013;-73
2021/01/03 11:38:55;;;;;;;15.00;7.73;;;5.20;80.40;;;;;;5055540;28;20077;-74
2021/01/03 11:41:21;;;;;;;18.63;9.00;;;5.30;80.50;;;;;;5072262;28;20376;-74
2021/01/03 11:43:46;;;;;;;17.50;8.07;;;5.30;79.70;;;;;;5055479;28;20025;-72
2021/01/03 11:46:12;;;;;;;17.40;7.60;;;5.30;79.60;;;;;;5073312;28;20031;-73
2021/01/03 11:48:37;;;;;;;17.77;8.80;;;5.30;80.20;;;;;;5055169;28;20051;-73
2021/01/03 11:51:03;;;;;;;17.53;9.10;;;5.30;79.90;;;;;;5072051;28;20059;-74
2021/01/03 11:53:29;;;;;;;17.43;8.03;;;5.30;79.40;;;;;;5071904;28;20013;-74
2021/01/03 11:55:54;;;;;;;16.70;8.73;;;5.30;79.50;;;;;;5055373;28;20477;-74
2021/01/03 11:58:20;;;;;;;17.03;8.97;;;5.30;79.20;;;;;;5055403;28;20097;-74
2021/01/03 12:00:46;;;;;;;15.93;8.97;;;5.40;79.00;;;;;;5073282;28;20510;-74
2021/01/03 12:03:11;;;;;;;16.33;8.23;;;5.30;78.90;;;;;;5072155;28;20029;-74
2021/01/03 12:05:37;;;;;;;16.63;8.50;;;5.30;79.00;;;;;;5073065;28;20082;-74
2021/01/03 12:08:03;;;;;;;17.17;8.10;;;5.30;79.10;;;;;;5071750;28;20058;-74
2021/01/03 12:10:28;;;;;;;19.80;9.10;;;5.30;79.80;;;;;;5054775;28;20025;-74
2021/01/03 12:12:54;;;;;;;24.63;10.40;;;5.30;79.10;;;;;;5072043;28;20025;-74
2021/01/03 12:15:20;;;;;;;23.43;9.93;;;5.30;79.30;;;;;;5055344;28;20024;-74
2021/01/03 12:17:45;;;;;;;21.53;10.27;;;5.20;79.40;;;;;;5055246;28;20182;-75
2021/01/03 12:20:12;;;;;;;21.13;8.50;;;5.30;79.80;;;;;;5055162;28;20025;-75
2021/01/03 12:22:37;;;;;;;17.73;8.60;;;5.30;80.20;;;;;;5071746;28;20036;-75
2021/01/03 12:25:04;;;;;;;19.97;10.17;;;5.30;80.30;;;;;;5072169;28;20035;-75
2021/01/03 12:27:30;;;;;;;18.43;9.50;;;5.30;80.20;;;;;;5071950;28;20035;-75
2021/01/03 12:29:56;;;;;;;19.33;9.70;;;5.40;80.50;;;;;;5072895;28;20388;-75
2021/01/03 12:32:21;;;;;;;19.70;9.77;;;5.30;80.20;;;;;;5072937;28;20377;-75
2021/01/03 12:34:47;;;;;;;23.43;10.87;;;5.30;80.40;;;;;;5071612;28;20033;-74
2021/01/03 12:37:17;;;;;;;23.10;11.47;;;5.30;80.90;;;;;;5054781;28;20078;-75
2021/01/03 12:39:44;;;;;;;23.20;11.43;;;5.30;80.90;;;;;;5075422;28;20458;-74
2021/01/03 12:42:12;;;;;;;23.60;10.60;;;5.40;81.00;;;;;;5075259;28;20472;-74
2021/01/03 12:44:38;;;;;;;25.63;12.73;;;5.40;81.00;;;;;;5075059;28;20426;-75
2021/01/03 12:47:04;;;;;;;25.20;12.10;;;5.40;81.20;;;;;;5076358;28;20053;-75
2021/01/03 12:49:30;;;;;;;26.17;14.20;;;5.40;81.40;;;;;;5058310;28;20048;-74
2021/01/03 12:51:56;;;;;;;25.63;13.93;;;5.40;81.30;;;;;;5076432;28;20021;-75
2021/01/03 12:54:22;;;;;;;26.70;13.77;;;5.40;81.50;;;;;;5075018;28;20016;-74
2021/01/03 12:56:48;;;;;;;28.90;14.10;;;5.50;81.90;;;;;;5075029;28;20024;-76